sensor_id;sensor_type;location;lat;lon;timestamp;temperature;humidity
20081;DHT22;10200;49.232;9.222;2024-01-16T00:01:43;0.60;99.90
20081;DHT22;10200;49.232;9.222;2024-01-16T00:04:12;0.60;99.90
20081;DHT22;10200;49.232;9.222;2024-01-16T00:06:41;0.60;99.90
20081;DHT22;10200;49.232;9.222;2024-01-16T00:09:07;0.60;99.90
20081;DHT22;10200;49.232;9.222;2024-01-16T00:11:34;0.60;99.90
20081;DHT22;10200;49.232;9.222;2024-01-16T00:13:59;0.60;99.90
20081;DHT22;10200;49.232;9.222;2024-01-16T00:16:25;0.50;99.90
20081;DHT22;10200;49.232;9.222;2024-01-16T00:18:50;0.50;99.90
20081;DHT22;10200;49.232;9.222;2024-01-16T00:21:16;0.40;99.90
20081;DHT22;10200;49.232;9.222;2024-01-16T00:23:41;0.40;99.90
20081;DHT22;10200;49.232;9.222;2024-01-16T00:26:07;0.40;99.90
20081;DHT22;10200;49.232;9.222;2024-01-16T00:28:33;0.40;99.90
20081;DHT22;10200;49.232;9.222;2024-01-16T00:30:58;0.30;99.90
20081;DHT22;10200;49.232;9.222;2024-01-16T00:33:24;0.30;99.90
20081;DHT22;10200;49.232;9.222;2024-01-16T00:35:49;0.30;99.90
20081;DHT22;10200;49.232;9.222;2024-01-16T00:38:15;0.30;99.90
20081;DHT22;10200;49.232;9.222;2024-01-16T00:40:41;0.20;99.90
20081;DHT22;10200;49.232;9.222;2024-01-16T00:43:06;0.30;99.90
20081;DHT22;10200;49.232;9.222;2024-01-16T00:45:32;0.20;99.90
20081;DHT22;10200;49.232;9.222;2024-01-16T00:47:58;0.20;99.90
20081;DHT22;10200;49.232;9.222;2024-01-16T00:50:24;0.20;99.90
20081;DHT22;10200;49.232;9.222;2024-01-16T00:52:50;0.20;99.90
20081;DHT22;10200;49.232;9.222;2024-01-16T00:55:15;0.20;99.90
20081;DHT22;10200;49.232;9.222;2024-01-16T00:57:41;0.20;99.90
20081;DHT22;10200;49.232;9.222;2024-01-16T01:00:07;0.20;99.90
20081;DHT22;10200;49.232;9.222;2024-01-16T01:02:33;0.10;99.90
20081;DHT22;10200;49.232;9.222;2024-01-16T01:04:59;0.10;99.90
20081;DHT22;10200;49.232;9.222;2024-01-16T01:07:24;0.10;99.90
20081;DHT22;10200;49.232;9.222;2024-01-16T01:09:51;0.10;99.90
20081;DHT22;10200;49.232;9.222;2024-01-16T01:12:16;0.10;99.90
20081;DHT22;10200;49.232;9.222;2024-01-16T01:14:42;0.00;99.90
20081;DHT22;10200;49.232;9.222;2024-01-16T01:17:08;0.00;99.90
20081;DHT22;10200;49.232;9.222;2024-01-16T01:19:33;0.00;99.90
20081;DHT22;10200;49.232;9.222;2024-01-16T01:21:59;0.00;99.90
20081;DHT22;10200;49.232;9.222;2024-01-16T01:24:25;0.00;99.90
20081;DHT22;10200;49.232;9.222;2024-01-16T01:26:50;0.00;99.90
20081;DHT22;10200;49.232;9.222;2024-01-16T01:29:16;-0.10;99.90
20081;DHT22;10200;49.232;9.222;2024-01-16T01:31:45;0.00;99.90
20081;DHT22;10200;49.232;9.222;2024-01-16T01:34:12;-0.10;99.90
20081;DHT22;10200;49.232;9.222;2024-01-16T01:36:38;-0.10;99.90
20081;DHT22;10200;49.232;9.222;2024-01-16T01:39:03;-0.10;99.90
20081;DHT22;10200;49.232;9.222;2024-01-16T01:41:29;-0.20;99.90
20081;DHT22;10200;49.232;9.222;2024-01-16T01:43:54;-0.10;99.90
20081;DHT22;10200;49.232;9.222;2024-01-16T01:46:21;-0.10;99.90
20081;DHT22;10200;49.232;9.222;2024-01-16T01:48:48;-0.20;99.90
20081;DHT22;10200;49.232;9.222;2024-01-16T01:51:15;-0.30;99.90
20081;DHT22;10200;49.232;9.222;2024-01-16T01:53:44;-0.20;99.90
20081;DHT22;10200;49.232;9.222;2024-01-16T01:56:17;-0.20;99.90
20081;DHT22;10200;49.232;9.222;2024-01-16T01:58:44;-0.20;99.90
20081;DHT22;10200;49.232;9.222;2024-01-16T02:01:11;-0.30;99.90
20081;DHT22;10200;49.232;9.222;2024-01-16T02:03:47;-0.30;99.90
20081;DHT22;10200;49.232;9.222;2024-01-16T02:06:17;-0.30;99.90
20081;DHT22;10200;49.232;9.222;2024-01-16T02:08:44;-0.30;99.90
20081;DHT22;10200;49.232;9.222;2024-01-16T02:11:10;-0.20;99.90
20081;DHT22;10200;49.232;9.222;2024-01-16T02:13:36;-0.20;99.90
20081;DHT22;10200;49.232;9.222;2024-01-16T02:16:02;-0.10;99.90
20081;DHT22;10200;49.232;9.222;2024-01-16T02:18:29;-0.10;99.90
20081;DHT22;10200;49.232;9.222;2024-01-16T02:21:00;-0.10;99.90
20081;DHT22;10200;49.232;9.222;2024-01-16T02:23:27;-0.10;99.90
20081;DHT22;10200;49.232;9.222;2024-01-16T02:25:54;-0.10;99.90
20081;DHT22;10200;49.232;9.222;2024-01-16T02:28:19;0.00;99.90
20081;DHT22;10200;49.232;9.222;2024-01-16T02:30:45;0.00;99.90
20081;DHT22;10200;49.232;9.222;2024-01-16T02:33:11;0.00;99.90
20081;DHT22;10200;49.232;9.222;2024-01-16T02:35:37;0.10;99.90
20081;DHT22;10200;49.232;9.222;2024-01-16T02:38:03;0.10;99.90
20081;DHT22;10200;49.232;9.222;2024-01-16T02:40:29;0.20;99.90
20081;DHT22;10200;49.232;9.222;2024-01-16T02:42:55;0.20;99.90
20081;DHT22;10200;49.232;9.222;2024-01-16T02:45:20;0.20;99.90
20081;DHT22;10200;49.232;9.222;2024-01-16T02:47:46;0.30;99.90
20081;DHT22;10200;49.232;9.222;2024-01-16T02:50:11;0.40;99.90
20081;DHT22;10200;49.232;9.222;2024-01-16T02:52:37;0.40;99.90
20081;DHT22;10200;49.232;9.222;2024-01-16T02:55:03;0.40;99.90
20081;DHT22;10200;49.232;9.222;2024-01-16T02:57:30;0.40;99.90
20081;DHT22;10200;49.232;9.222;2024-01-16T02:59:55;0.40;99.90
20081;DHT22;10200;49.232;9.222;2024-01-16T03:02:21;0.40;99.90
20081;DHT22;10200;49.232;9.222;2024-01-16T03:04:49;0.40;99.90
20081;DHT22;10200;49.232;9.222;2024-01-16T03:07:14;0.40;99.90
20081;DHT22;10200;49.232;9.222;2024-01-16T03:09:40;0.40;99.90
20081;DHT22;10200;49.232;9.222;2024-01-16T03:12:05;0.40;99.90
20081;DHT22;10200;49.232;9.222;2024-01-16T03:14:31;0.40;99.90
20081;DHT22;10200;49.232;9.222;2024-01-16T03:17:02;0.40;99.90
20081;DHT22;10200;49.232;9.222;2024-01-16T03:19:27;0.40;99.90
20081;DHT22;10200;49.232;9.222;2024-01-16T03:21:53;0.50;99.90
20081;DHT22;10200;49.232;9.222;2024-01-16T03:24:19;0.50;99.90
20081;DHT22;10200;49.232;9.222;2024-01-16T03:26:45;0.50;99.90
20081;DHT22;10200;49.232;9.222;2024-01-16T03:29:11;0.40;99.90
20081;DHT22;10200;49.232;9.222;2024-01-16T03:31:36;0.40;99.90
20081;DHT22;10200;49.232;9.222;2024-01-16T03:34:02;0.50;99.90
20081;DHT22;10200;49.232;9.222;2024-01-16T03:36:28;0.50;99.90
20081;DHT22;10200;49.232;9.222;2024-01-16T03:38:54;0.60;99.90
20081;DHT22;10200;49.232;9.222;2024-01-16T03:41:19;0.50;99.90
20081;DHT22;10200;49.232;9.222;2024-01-16T03:43:45;0.50;99.90
20081;DHT22;10200;49.232;9.222;2024-01-16T03:46:11;0.50;99.90
20081;DHT22;10200;49.232;9.222;2024-01-16T03:48:37;0.50;99.90
20081;DHT22;10200;49.232;9.222;2024-01-16T03:51:02;0.50;99.90
20081;DHT22;10200;49.232;9.222;2024-01-16T03:53:28;0.50;99.90
20081;DHT22;10200;49.232;9.222;2024-01-16T03:55:53;0.50;99.90
20081;DHT22;10200;49.232;9.222;2024-01-16T03:58:19;0.60;99.90
20081;DHT22;10200;49.232;9.222;2024-01-16T04:00:45;0.60;99.90
20081;DHT22;10200;49.232;9.222;2024-01-16T04:03:11;0.60;99.90
20081;DHT22;10200;49.232;9.222;2024-01-16T04:05:37;0.60;99.90
20081;DHT22;10200;49.232;9.222;2024-01-16T04:08:03;0.60;99.90
20081;DHT22;10200;49.232;9.222;2024-01-16T04:10:28;0.50;99.90
20081;DHT22;10200;49.232;9.222;2024-01-16T04:12:54;0.50;99.90
20081;DHT22;10200;49.232;9.222;2024-01-16T04:15:19;0.60;99.90
20081;DHT22;10200;49.232;9.222;2024-01-16T04:17:45;0.60;99.90
20081;DHT22;10200;49.232;9.222;2024-01-16T04:20:11;0.60;99.90
20081;DHT22;10200;49.232;9.222;2024-01-16T04:22:36;0.50;99.90
20081;DHT22;10200;49.232;9.222;2024-01-16T04:25:02;0.50;99.90
20081;DHT22;10200;49.232;9.222;2024-01-16T04:27:30;0.50;99.90
20081;DHT22;10200;49.232;9.222;2024-01-16T04:29:57;0.50;99.90
20081;DHT22;10200;49.232;9.222;2024-01-16T04:32:22;0.50;99.90
20081;DHT22;10200;49.232;9.222;2024-01-16T04:34:48;0.50;99.90
20081;DHT22;10200;49.232;9.222;2024-01-16T04:37:13;0.50;99.90
20081;DHT22;10200;49.232;9.222;2024-01-16T04:39:39;0.50;99.90
20081;DHT22;10200;49.232;9.222;2024-01-16T04:42:04;0.50;99.90
20081;DHT22;10200;49.232;9.222;2024-01-16T04:44:30;0.50;99.90
20081;DHT22;10200;49.232;9.222;2024-01-16T04:46:56;0.60;99.90
20081;DHT22;10200;49.232;9.222;2024-01-16T04:49:21;0.50;99.90
20081;DHT22;10200;49.232;9.222;2024-01-16T04:51:47;0.50;99.90
20081;DHT22;10200;49.232;9.222;2024-01-16T04:54:13;0.50;99.90
20081;DHT22;10200;49.232;9.222;2024-01-16T04:56:38;0.60;99.90
20081;DHT22;10200;49.232;9.222;2024-01-16T04:59:04;0.60;99.90
20081;DHT22;10200;49.232;9.222;2024-01-16T05:01:29;0.60;99.90
20081;DHT22;10200;49.232;9.222;2024-01-16T05:03:55;0.60;99.90
20081;DHT22;10200;49.232;9.222;2024-01-16T05:06:20;0.60;99.90
20081;DHT22;10200;49.232;9.222;2024-01-16T05:08:47;0.60;99.90
20081;DHT22;10200;49.232;9.222;2024-01-16T05:11:12;0.60;99.90
20081;DHT22;10200;49.232;9.222;2024-01-16T05:13:38;0.60;99.90
20081;DHT22;10200;49.232;9.222;2024-01-16T05:16:04;0.60;99.90
20081;DHT22;10200;49.232;9.222;2024-01-16T05:18:29;0.60;99.90
20081;DHT22;10200;49.232;9.222;2024-01-16T05:20:55;0.70;99.90
20081;DHT22;10200;49.232;9.222;2024-01-16T05:23:24;0.70;99.90
20081;DHT22;10200;49.232;9.222;2024-01-16T05:25:49;0.70;99.90
20081;DHT22;10200;49.232;9.222;2024-01-16T05:28:15;0.70;99.90
20081;DHT22;10200;49.232;9.222;2024-01-16T05:30:40;0.60;99.90
20081;DHT22;10200;49.232;9.222;2024-01-16T05:33:06;0.60;99.90
20081;DHT22;10200;49.232;9.222;2024-01-16T05:35:32;0.60;99.90
20081;DHT22;10200;49.232;9.222;2024-01-16T05:37:58;0.60;99.90
20081;DHT22;10200;49.232;9.222;2024-01-16T05:40:24;0.60;99.90
20081;DHT22;10200;49.232;9.222;2024-01-16T05:42:50;0.60;99.90
20081;DHT22;10200;49.232;9.222;2024-01-16T05:45:16;0.60;99.90
20081;DHT22;10200;49.232;9.222;2024-01-16T05:47:42;0.50;99.90
20081;DHT22;10200;49.232;9.222;2024-01-16T05:50:08;0.50;99.90
20081;DHT22;10200;49.232;9.222;2024-01-16T05:52:34;0.50;99.90
20081;DHT22;10200;49.232;9.222;2024-01-16T05:55:00;0.40;99.90
20081;DHT22;10200;49.232;9.222;2024-01-16T05:57:26;0.30;99.90
20081;DHT22;10200;49.232;9.222;2024-01-16T05:59:52;0.30;99.90
20081;DHT22;10200;49.232;9.222;2024-01-16T06:02:18;0.20;99.90
20081;DHT22;10200;49.232;9.222;2024-01-16T06:04:43;0.10;99.90
20081;DHT22;10200;49.232;9.222;2024-01-16T06:07:09;0.00;99.90
20081;DHT22;10200;49.232;9.222;2024-01-16T06:09:41;0.00;99.90
20081;DHT22;10200;49.232;9.222;2024-01-16T06:12:07;-0.10;99.90
20081;DHT22;10200;49.232;9.222;2024-01-16T06:14:33;-0.10;99.90
20081;DHT22;10200;49.232;9.222;2024-01-16T06:17:00;0.00;99.90
20081;DHT22;10200;49.232;9.222;2024-01-16T06:19:25;0.00;99.90
20081;DHT22;10200;49.232;9.222;2024-01-16T06:21:51;0.00;99.90
20081;DHT22;10200;49.232;9.222;2024-01-16T06:24:16;0.00;99.90
20081;DHT22;10200;49.232;9.222;2024-01-16T06:26:42;0.00;99.90
20081;DHT22;10200;49.232;9.222;2024-01-16T06:29:08;0.00;99.90
20081;DHT22;10200;49.232;9.222;2024-01-16T06:31:33;0.00;99.90
20081;DHT22;10200;49.232;9.222;2024-01-16T06:33:59;0.00;99.90
20081;DHT22;10200;49.232;9.222;2024-01-16T06:36:25;0.00;99.90
20081;DHT22;10200;49.232;9.222;2024-01-16T06:38:51;0.00;99.90
20081;DHT22;10200;49.232;9.222;2024-01-16T06:41:17;0.00;99.90
20081;DHT22;10200;49.232;9.222;2024-01-16T06:43:43;0.00;99.90
20081;DHT22;10200;49.232;9.222;2024-01-16T06:46:09;0.00;99.90
20081;DHT22;10200;49.232;9.222;2024-01-16T06:48:37;-0.10;99.90
20081;DHT22;10200;49.232;9.222;2024-01-16T06:51:04;-0.10;99.90
20081;DHT22;10200;49.232;9.222;2024-01-16T06:53:29;-0.10;99.90
20081;DHT22;10200;49.232;9.222;2024-01-16T06:55:55;-0.10;99.90
20081;DHT22;10200;49.232;9.222;2024-01-16T06:58:21;0.00;99.90
20081;DHT22;10200;49.232;9.222;2024-01-16T07:00:47;-0.10;99.90
20081;DHT22;10200;49.232;9.222;2024-01-16T07:03:13;-0.10;99.90
20081;DHT22;10200;49.232;9.222;2024-01-16T07:05:39;-0.10;99.90
20081;DHT22;10200;49.232;9.222;2024-01-16T07:08:06;-0.10;99.90
20081;DHT22;10200;49.232;9.222;2024-01-16T07:10:32;-0.10;99.90
20081;DHT22;10200;49.232;9.222;2024-01-16T07:12:58;-0.10;99.90
20081;DHT22;10200;49.232;9.222;2024-01-16T07:15:23;-0.10;99.90
20081;DHT22;10200;49.232;9.222;2024-01-16T07:17:49;0.00;99.90
20081;DHT22;10200;49.232;9.222;2024-01-16T07:20:15;0.00;99.90
20081;DHT22;10200;49.232;9.222;2024-01-16T07:22:40;0.00;99.90
20081;DHT22;10200;49.232;9.222;2024-01-16T07:25:07;0.00;99.90
20081;DHT22;10200;49.232;9.222;2024-01-16T07:27:32;0.00;99.90
20081;DHT22;10200;49.232;9.222;2024-01-16T07:29:58;0.00;99.90
20081;DHT22;10200;49.232;9.222;2024-01-16T07:32:24;0.00;99.90
20081;DHT22;10200;49.232;9.222;2024-01-16T07:34:49;0.00;99.90
20081;DHT22;10200;49.232;9.222;2024-01-16T07:37:16;0.00;99.90
20081;DHT22;10200;49.232;9.222;2024-01-16T07:39:43;0.00;99.90
20081;DHT22;10200;49.232;9.222;2024-01-16T07:42:08;0.00;99.90
20081;DHT22;10200;49.232;9.222;2024-01-16T07:44:34;0.10;99.90
20081;DHT22;10200;49.232;9.222;2024-01-16T07:47:00;0.10;99.90
20081;DHT22;10200;49.232;9.222;2024-01-16T07:49:25;0.20;99.90
20081;DHT22;10200;49.232;9.222;2024-01-16T07:51:52;0.20;99.90
20081;DHT22;10200;49.232;9.222;2024-01-16T07:54:17;0.20;99.90
20081;DHT22;10200;49.232;9.222;2024-01-16T07:56:43;0.20;99.90
20081;DHT22;10200;49.232;9.222;2024-01-16T07:59:08;0.20;99.90
20081;DHT22;10200;49.232;9.222;2024-01-16T08:01:34;0.20;99.90
20081;DHT22;10200;49.232;9.222;2024-01-16T08:03:59;0.20;99.90
20081;DHT22;10200;49.232;9.222;2024-01-16T08:06:26;0.30;99.90
20081;DHT22;10200;49.232;9.222;2024-01-16T08:08:51;0.30;99.90
20081;DHT22;10200;49.232;9.222;2024-01-16T08:11:18;0.40;99.90
20081;DHT22;10200;49.232;9.222;2024-01-16T08:13:44;0.40;99.90
20081;DHT22;10200;49.232;9.222;2024-01-16T08:16:10;0.50;99.90
20081;DHT22;10200;49.232;9.222;2024-01-16T08:18:36;0.60;99.90
20081;DHT22;10200;49.232;9.222;2024-01-16T08:21:02;0.60;99.90
20081;DHT22;10200;49.232;9.222;2024-01-16T08:23:27;0.70;99.90
20081;DHT22;10200;49.232;9.222;2024-01-16T08:25:53;0.70;99.90
20081;DHT22;10200;49.232;9.222;2024-01-16T08:28:19;0.70;99.90
20081;DHT22;10200;49.232;9.222;2024-01-16T08:30:44;0.70;99.90
20081;DHT22;10200;49.232;9.222;2024-01-16T08:33:11;0.80;99.90
20081;DHT22;10200;49.232;9.222;2024-01-16T08:35:37;0.80;99.90
20081;DHT22;10200;49.232;9.222;2024-01-16T08:38:03;0.90;99.90
20081;DHT22;10200;49.232;9.222;2024-01-16T08:40:28;0.90;99.90
20081;DHT22;10200;49.232;9.222;2024-01-16T08:42:54;1.00;99.90
20081;DHT22;10200;49.232;9.222;2024-01-16T08:45:22;1.10;99.90
20081;DHT22;10200;49.232;9.222;2024-01-16T08:47:48;1.10;99.90
20081;DHT22;10200;49.232;9.222;2024-01-16T08:50:15;1.20;99.90
20081;DHT22;10200;49.232;9.222;2024-01-16T08:52:40;1.40;99.90
20081;DHT22;10200;49.232;9.222;2024-01-16T08:55:07;1.50;99.90
20081;DHT22;10200;49.232;9.222;2024-01-16T08:57:34;1.50;99.90
20081;DHT22;10200;49.232;9.222;2024-01-16T09:00:00;1.50;99.90
20081;DHT22;10200;49.232;9.222;2024-01-16T09:02:25;1.60;99.90
20081;DHT22;10200;49.232;9.222;2024-01-16T09:04:54;1.50;99.90
20081;DHT22;10200;49.232;9.222;2024-01-16T09:07:20;1.60;99.90
20081;DHT22;10200;49.232;9.222;2024-01-16T09:09:46;1.70;99.90
20081;DHT22;10200;49.232;9.222;2024-01-16T09:12:11;1.70;99.90
20081;DHT22;10200;49.232;9.222;2024-01-16T09:14:37;1.70;99.90
20081;DHT22;10200;49.232;9.222;2024-01-16T09:17:03;1.80;99.90
20081;DHT22;10200;49.232;9.222;2024-01-16T09:19:29;1.80;99.90
20081;DHT22;10200;49.232;9.222;2024-01-16T09:21:55;1.80;99.90
20081;DHT22;10200;49.232;9.222;2024-01-16T09:24:21;1.80;99.70
20081;DHT22;10200;49.232;9.222;2024-01-16T09:26:47;1.80;99.00
20081;DHT22;10200;49.232;9.222;2024-01-16T09:29:12;1.80;98.60
20081;DHT22;10200;49.232;9.222;2024-01-16T09:31:40;1.70;98.80
20081;DHT22;10200;49.232;9.222;2024-01-16T09:34:06;1.80;99.00
20081;DHT22;10200;49.232;9.222;2024-01-16T09:36:32;1.80;99.00
20081;DHT22;10200;49.232;9.222;2024-01-16T09:38:57;1.90;98.70
20081;DHT22;10200;49.232;9.222;2024-01-16T09:41:23;2.00;98.30
20081;DHT22;10200;49.232;9.222;2024-01-16T09:43:50;2.10;98.70
20081;DHT22;10200;49.232;9.222;2024-01-16T09:46:17;2.10;97.20
20081;DHT22;10200;49.232;9.222;2024-01-16T09:48:46;2.10;96.50
20081;DHT22;10200;49.232;9.222;2024-01-16T09:51:13;2.10;97.10
20081;DHT22;10200;49.232;9.222;2024-01-16T09:53:43;2.20;96.40
20081;DHT22;10200;49.232;9.222;2024-01-16T09:56:16;2.20;96.70
20081;DHT22;10200;49.232;9.222;2024-01-16T09:58:43;2.30;96.00
20081;DHT22;10200;49.232;9.222;2024-01-16T10:01:11;2.30;96.20
20081;DHT22;10200;49.232;9.222;2024-01-16T10:03:38;2.40;95.20
20081;DHT22;10200;49.232;9.222;2024-01-16T10:06:07;2.40;95.10
20081;DHT22;10200;49.232;9.222;2024-01-16T10:08:33;2.50;94.70
20081;DHT22;10200;49.232;9.222;2024-01-16T10:10:59;2.60;94.80
20081;DHT22;10200;49.232;9.222;2024-01-16T10:13:26;2.60;94.70
20081;DHT22;10200;49.232;9.222;2024-01-16T10:15:52;2.60;93.30
20081;DHT22;10200;49.232;9.222;2024-01-16T10:18:27;2.60;93.00
20081;DHT22;10200;49.232;9.222;2024-01-16T10:20:55;2.50;93.30
20081;DHT22;10200;49.232;9.222;2024-01-16T10:23:28;2.50;93.10
20081;DHT22;10200;49.232;9.222;2024-01-16T10:26:13;2.50;93.10
20081;DHT22;10200;49.232;9.222;2024-01-16T10:28:42;2.40;93.30
20081;DHT22;10200;49.232;9.222;2024-01-16T10:31:10;2.50;93.90
20081;DHT22;10200;49.232;9.222;2024-01-16T10:33:37;2.40;92.90
20081;DHT22;10200;49.232;9.222;2024-01-16T10:36:12;2.50;93.70
20081;DHT22;10200;49.232;9.222;2024-01-16T10:38:42;2.60;93.70
20081;DHT22;10200;49.232;9.222;2024-01-16T10:41:11;2.70;93.90
20081;DHT22;10200;49.232;9.222;2024-01-16T10:43:37;2.80;93.60
20081;DHT22;10200;49.232;9.222;2024-01-16T10:46:09;2.90;93.70
20081;DHT22;10200;49.232;9.222;2024-01-16T10:48:37;3.00;93.40
20081;DHT22;10200;49.232;9.222;2024-01-16T10:51:06;3.10;93.10
20081;DHT22;10200;49.232;9.222;2024-01-16T10:53:33;3.20;92.90
20081;DHT22;10200;49.232;9.222;2024-01-16T10:56:00;3.10;91.40
20081;DHT22;10200;49.232;9.222;2024-01-16T10:58:26;3.10;92.30
20081;DHT22;10200;49.232;9.222;2024-01-16T11:00:57;3.10;92.20
20081;DHT22;10200;49.232;9.222;2024-01-16T11:03:49;3.20;92.00
20081;DHT22;10200;49.232;9.222;2024-01-16T11:06:17;3.30;91.90
20081;DHT22;10200;49.232;9.222;2024-01-16T11:08:45;3.20;91.00
20081;DHT22;10200;49.232;9.222;2024-01-16T11:11:13;3.30;91.20
20081;DHT22;10200;49.232;9.222;2024-01-16T11:13:38;3.40;91.60
20081;DHT22;10200;49.232;9.222;2024-01-16T11:16:05;3.40;91.10
20081;DHT22;10200;49.232;9.222;2024-01-16T11:18:33;3.30;90.40
20081;DHT22;10200;49.232;9.222;2024-01-16T11:21:01;3.40;90.70
20081;DHT22;10200;49.232;9.222;2024-01-16T11:23:26;3.40;90.60
20081;DHT22;10200;49.232;9.222;2024-01-16T11:25:52;3.40;90.50
20081;DHT22;10200;49.232;9.222;2024-01-16T11:28:18;3.40;90.60
20081;DHT22;10200;49.232;9.222;2024-01-16T11:30:45;3.50;90.50
20081;DHT22;10200;49.232;9.222;2024-01-16T11:36:02;3.70;90.40
20081;DHT22;10200;49.232;9.222;2024-01-16T11:38:29;3.60;89.30
20081;DHT22;10200;49.232;9.222;2024-01-16T11:40:57;3.70;89.80
20081;DHT22;10200;49.232;9.222;2024-01-16T11:46:15;3.60;89.00
20081;DHT22;10200;49.232;9.222;2024-01-16T11:48:41;3.50;88.90
20081;DHT22;10200;49.232;9.222;2024-01-16T11:51:26;3.60;89.90
20081;DHT22;10200;49.232;9.222;2024-01-16T11:53:52;3.60;89.30
20081;DHT22;10200;49.232;9.222;2024-01-16T11:56:42;3.70;88.90
20081;DHT22;10200;49.232;9.222;2024-01-16T12:01:57;3.80;89.10
20081;DHT22;10200;49.232;9.222;2024-01-16T12:04:24;3.80;87.40
20081;DHT22;10200;49.232;9.222;2024-01-16T12:07:00;3.70;86.50
20081;DHT22;10200;49.232;9.222;2024-01-16T12:09:27;3.70;87.70
20081;DHT22;10200;49.232;9.222;2024-01-16T12:12:00;3.80;87.80
20081;DHT22;10200;49.232;9.222;2024-01-16T12:14:29;3.80;86.40
20081;DHT22;10200;49.232;9.222;2024-01-16T12:17:11;3.80;86.80
20081;DHT22;10200;49.232;9.222;2024-01-16T12:19:37;3.80;87.00
20081;DHT22;10200;49.232;9.222;2024-01-16T12:22:08;3.80;86.80
20081;DHT22;10200;49.232;9.222;2024-01-16T12:24:35;3.90;86.90
20081;DHT22;10200;49.232;9.222;2024-01-16T12:27:01;3.90;85.80
20081;DHT22;10200;49.232;9.222;2024-01-16T12:29:27;3.80;85.60
20081;DHT22;10200;49.232;9.222;2024-01-16T12:32:05;3.70;86.50
20081;DHT22;10200;49.232;9.222;2024-01-16T12:34:31;3.80;86.40
20081;DHT22;10200;49.232;9.222;2024-01-16T12:37:07;3.70;86.20
20081;DHT22;10200;49.232;9.222;2024-01-16T12:39:34;3.70;86.20
20081;DHT22;10200;49.232;9.222;2024-01-16T12:42:01;3.60;85.70
20081;DHT22;10200;49.232;9.222;2024-01-16T12:44:28;3.60;85.50
20081;DHT22;10200;49.232;9.222;2024-01-16T12:46:57;3.40;84.60
20081;DHT22;10200;49.232;9.222;2024-01-16T12:49:23;3.30;85.50
20081;DHT22;10200;49.232;9.222;2024-01-16T12:51:49;3.30;85.50
20081;DHT22;10200;49.232;9.222;2024-01-16T12:54:17;3.20;85.60
20081;DHT22;10200;49.232;9.222;2024-01-16T12:56:44;3.20;86.00
20081;DHT22;10200;49.232;9.222;2024-01-16T12:59:11;3.20;86.20
20081;DHT22;10200;49.232;9.222;2024-01-16T13:01:40;3.10;86.00
20081;DHT22;10200;49.232;9.222;2024-01-16T13:04:10;3.00;86.80
20081;DHT22;10200;49.232;9.222;2024-01-16T13:06:36;3.00;87.00
20081;DHT22;10200;49.232;9.222;2024-01-16T13:09:09;2.90;87.30
20081;DHT22;10200;49.232;9.222;2024-01-16T13:14:15;2.80;87.60
20081;DHT22;10200;49.232;9.222;2024-01-16T13:16:40;2.80;88.10
20081;DHT22;10200;49.232;9.222;2024-01-16T13:19:06;2.70;87.80
20081;DHT22;10200;49.232;9.222;2024-01-16T13:21:35;2.60;87.20
20081;DHT22;10200;49.232;9.222;2024-01-16T13:24:03;2.50;87.30
20081;DHT22;10200;49.232;9.222;2024-01-16T13:26:28;2.40;87.80
20081;DHT22;10200;49.232;9.222;2024-01-16T13:28:54;2.40;88.00
20081;DHT22;10200;49.232;9.222;2024-01-16T13:31:19;2.30;88.40
20081;DHT22;10200;49.232;9.222;2024-01-16T13:33:45;2.30;88.60
20081;DHT22;10200;49.232;9.222;2024-01-16T13:36:11;2.30;88.50
20081;DHT22;10200;49.232;9.222;2024-01-16T13:38:37;2.30;89.00
20081;DHT22;10200;49.232;9.222;2024-01-16T13:41:02;2.30;89.20
20081;DHT22;10200;49.232;9.222;2024-01-16T13:43:28;2.20;89.60
20081;DHT22;10200;49.232;9.222;2024-01-16T13:45:54;2.20;89.70
20081;DHT22;10200;49.232;9.222;2024-01-16T13:48:20;2.30;89.90
20081;DHT22;10200;49.232;9.222;2024-01-16T13:50:46;2.20;89.80
20081;DHT22;10200;49.232;9.222;2024-01-16T13:53:12;2.20;89.90
20081;DHT22;10200;49.232;9.222;2024-01-16T13:55:41;2.20;90.10
20081;DHT22;10200;49.232;9.222;2024-01-16T13:58:07;2.20;90.10
20081;DHT22;10200;49.232;9.222;2024-01-16T14:00:33;2.30;90.20
20081;DHT22;10200;49.232;9.222;2024-01-16T14:02:59;2.30;90.20
20081;DHT22;10200;49.232;9.222;2024-01-16T14:05:24;2.30;90.30
20081;DHT22;10200;49.232;9.222;2024-01-16T14:07:51;2.40;90.20
20081;DHT22;10200;49.232;9.222;2024-01-16T14:10:18;2.50;90.20
20081;DHT22;10200;49.232;9.222;2024-01-16T14:12:46;2.50;89.80
20081;DHT22;10200;49.232;9.222;2024-01-16T14:15:13;2.50;89.60
20081;DHT22;10200;49.232;9.222;2024-01-16T14:17:43;2.60;89.20
20081;DHT22;10200;49.232;9.222;2024-01-16T14:20:11;2.60;89.50
20081;DHT22;10200;49.232;9.222;2024-01-16T14:22:37;2.70;89.10
20081;DHT22;10200;49.232;9.222;2024-01-16T14:25:03;2.70;88.60
20081;DHT22;10200;49.232;9.222;2024-01-16T14:27:45;2.60;88.50
20081;DHT22;10200;49.232;9.222;2024-01-16T14:30:13;2.70;88.90
20081;DHT22;10200;49.232;9.222;2024-01-16T14:32:40;2.70;88.60
20081;DHT22;10200;49.232;9.222;2024-01-16T14:35:07;2.70;88.50
20081;DHT22;10200;49.232;9.222;2024-01-16T14:37:37;2.80;88.50
20081;DHT22;10200;49.232;9.222;2024-01-16T14:40:04;2.70;87.80
20081;DHT22;10200;49.232;9.222;2024-01-16T14:42:46;2.70;87.70
20081;DHT22;10200;49.232;9.222;2024-01-16T14:45:16;2.70;88.40
20081;DHT22;10200;49.232;9.222;2024-01-16T14:47:42;2.70;88.40
20081;DHT22;10200;49.232;9.222;2024-01-16T14:50:10;2.60;87.90
20081;DHT22;10200;49.232;9.222;2024-01-16T14:52:38;2.60;87.80
20081;DHT22;10200;49.232;9.222;2024-01-16T14:55:09;2.50;88.00
20081;DHT22;10200;49.232;9.222;2024-01-16T14:57:37;2.50;88.00
20081;DHT22;10200;49.232;9.222;2024-01-16T15:00:10;2.40;88.20
20081;DHT22;10200;49.232;9.222;2024-01-16T15:02:44;2.40;88.60
20081;DHT22;10200;49.232;9.222;2024-01-16T15:05:09;2.40;89.20
20081;DHT22;10200;49.232;9.222;2024-01-16T15:07:35;2.40;89.10
20081;DHT22;10200;49.232;9.222;2024-01-16T15:10:04;2.40;89.00
20081;DHT22;10200;49.232;9.222;2024-01-16T15:12:31;2.40;88.80
20081;DHT22;10200;49.232;9.222;2024-01-16T15:14:57;2.30;88.50
20081;DHT22;10200;49.232;9.222;2024-01-16T15:17:22;2.30;88.50
20081;DHT22;10200;49.232;9.222;2024-01-16T15:19:48;2.20;88.40
20081;DHT22;10200;49.232;9.222;2024-01-16T15:22:13;2.20;88.60
20081;DHT22;10200;49.232;9.222;2024-01-16T15:24:39;2.10;88.70
20081;DHT22;10200;49.232;9.222;2024-01-16T15:27:04;2.10;89.10
20081;DHT22;10200;49.232;9.222;2024-01-16T15:29:30;2.10;89.50
20081;DHT22;10200;49.232;9.222;2024-01-16T15:31:56;2.00;89.40
20081;DHT22;10200;49.232;9.222;2024-01-16T15:34:22;1.90;89.60
20081;DHT22;10200;49.232;9.222;2024-01-16T15:36:48;1.90;90.00
20081;DHT22;10200;49.232;9.222;2024-01-16T15:39:14;1.80;90.00
20081;DHT22;10200;49.232;9.222;2024-01-16T15:41:45;1.70;90.00
20081;DHT22;10200;49.232;9.222;2024-01-16T15:44:11;1.60;90.20
20081;DHT22;10200;49.232;9.222;2024-01-16T15:47:01;1.50;90.20
20081;DHT22;10200;49.232;9.222;2024-01-16T15:49:31;1.40;90.40
20081;DHT22;10200;49.232;9.222;2024-01-16T15:51:57;1.30;90.60
20081;DHT22;10200;49.232;9.222;2024-01-16T15:54:25;1.20;90.90